Terminal Aerodrome Forecast
Issued by NWS

Home | Current Version | Previous Version | Text Only | Print | Product List | Glossary On
Versions: 1 2 3 4 5 6 7 8 9 10 11 12 13 14 15
000
FTUS43 KFGF 181700
TAFBJI
TAF
KBJI 181723Z 1818/1918 15009KT P6SM SCT015
     FM182100 15014G22KT P6SM SCT100
     FM190400 17014KT P6SM BKN120=

USA.gov is the U.S. government's official web portal to all federal, state and local government web resources and services.